Terminal Aerodrome Forecast
Issued by NWS

Home | Current Version | Previous Version | Text Only | Print | Product List | Glossary On
Versions: 1 2 3 4 5 6 7 8 9 10 11 12 13 14 15 16 17 18 19 20 21 22 23 24 25 26 27 28 29 30 31 32 33 34 35 36 37
000
FTUS41 KBOX 290826 AAA
TAFACK
TAF AMD
KACK 290826Z 2908/3006 22007KT 5SM BR SCT005 OVC040
     FM291200 31004KT P6SM SCT030
     FM291800 14004KT P6SM FEW045
     FM300200 19004KT 5SM BR BKN030=

USA.gov is the U.S. government's official web portal to all federal, state and local government web resources and services.